TimeCST,TemperatureF,Dew PointF,Humidity,Sea Level PressureIn,VisibilityMPH,Wind Direction,Wind SpeedMPH,Gust SpeedMPH,PrecipitationIn,Events,Conditions,WindDirDegrees,DateUTC
12:53 AM,7.0,-2.0,67,30.27,10.0,SSE,5.8,-,N/A,,Clear,160,2014-02-12 06:53:00
1:53 AM,6.1,-2.0,69,30.25,10.0,SSE,4.6,-,N/A,,Clear,160,2014-02-12 07:53:00
2:53 AM,8.1,-0.0,70,30.23,10.0,South,5.8,-,N/A,,Clear,170,2014-02-12 08:53:00
3:53 AM,10.9,1.9,67,30.21,10.0,South,6.9,-,N/A,,Clear,180,2014-02-12 09:53:00
4:53 AM,12.0,3.0,67,30.19,10.0,South,4.6,-,N/A,,Clear,190,2014-02-12 10:53:00
5:53 AM,10.9,3.0,70,30.18,10.0,South,5.8,-,N/A,,Clear,180,2014-02-12 11:53:00
6:53 AM,12.9,3.9,67,30.17,10.0,South,6.9,-,N/A,,Clear,170,2014-02-12 12:53:00
7:53 AM,12.9,3.9,67,30.17,10.0,South,3.5,-,N/A,,Partly Cloudy,180,2014-02-12 13:53:00
8:53 AM,18.0,7.0,62,30.14,10.0,South,9.2,-,N/A,,Scattered Clouds,190,2014-02-12 14:53:00
9:53 AM,21.0,8.1,57,30.15,10.0,South,10.4,-,N/A,,Mostly Cloudy,190,2014-02-12 15:53:00
10:53 AM,27.0,14.0,58,30.14,10.0,SW,10.4,-,N/A,,Mostly Cloudy,230,2014-02-12 16:53:00
11:53 AM,28.0,16.0,61,30.12,10.0,SW,5.8,-,N/A,,Overcast,230,2014-02-12 17:53:00
12:53 PM,28.9,16.0,58,30.10,10.0,West,6.9,-,N/A,,Mostly Cloudy,260,2014-02-12 18:53:00
1:53 PM,28.9,18.0,64,30.07,10.0,West,5.8,-,N/A,,Overcast,270,2014-02-12 19:53:00
2:53 PM,28.9,18.0,64,30.08,10.0,West,10.4,-,N/A,,Overcast,280,2014-02-12 20:53:00
3:50 PM,28.4,19.4,69,30.02,10.0,North,9.2,-,N/A,,Overcast,360,2014-02-12 21:50:00
3:53 PM,28.9,19.0,67,30.06,10.0,North,8.1,-,N/A,,Overcast,360,2014-02-12 21:53:00
4:07 PM,28.9,19.0,67,30.02,10.0,NNW,6.9,-,N/A,,Overcast,340,2014-02-12 22:07:00
4:38 PM,28.9,19.0,67,30.03,10.0,NNW,8.1,-,N/A,,Overcast,340,2014-02-12 22:38:00
4:53 PM,28.9,19.9,69,30.08,10.0,NNW,9.2,-,N/A,,Overcast,340,2014-02-12 22:53:00
5:53 PM,28.0,19.0,69,30.07,9.0,NNW,5.8,-,N/A,,Overcast,340,2014-02-12 23:53:00
6:41 PM,27.0,19.0,72,30.01,10.0,NE,3.5,-,N/A,,Overcast,50,2014-02-13 00:41:00
6:53 PM,25.0,18.0,75,30.05,10.0,Calm,Calm,-,N/A,,Mostly Cloudy,0,2014-02-13 00:53:00
7:11 PM,26.1,19.0,75,30.02,10.0,West,4.6,-,N/A,,Mostly Cloudy,270,2014-02-13 01:11:00
7:53 PM,27.0,19.0,72,30.07,8.0,Calm,Calm,-,N/A,,Overcast,0,2014-02-13 01:53:00
8:53 PM,27.0,19.9,75,30.07,9.0,NW,4.6,-,N/A,,Overcast,320,2014-02-13 02:53:00
9:53 PM,26.1,19.0,75,30.04,8.0,Calm,Calm,-,N/A,,Overcast,0,2014-02-13 03:53:00
10:53 PM,26.1,19.9,78,30.02,7.0,Calm,Calm,-,N/A,,Overcast,0,2014-02-13 04:53:00
11:32 PM,24.1,19.0,81,29.97,6.0,South,3.5,-,N/A,,Haze,170,2014-02-13 05:32:00
11:53 PM,23.0,18.0,81,29.98,6.0,SE,9.2,-,N/A,,Haze,140,2014-02-13 05:53:00